sensor_id;sensor_type;location;lat;lon;timestamp;pressure;altitude;pressure_sealevel;temperature;humidity
64610;BME280;51019;46.090;6.350;2022-07-29T00:00:23;96401.84;;;18.04;68.11
64610;BME280;51019;46.090;6.350;2022-07-29T00:02:48;96398.09;;;17.71;68.84
64610;BME280;51019;46.090;6.350;2022-07-29T00:05:13;96330.75;;;17.23;69.16
64610;BME280;51019;46.090;6.350;2022-07-29T00:07:39;96389.78;;;18.02;67.49
64610;BME280;51019;46.090;6.350;2022-07-29T00:10:06;96400.94;;;17.97;68.20
64610;BME280;51019;46.090;6.350;2022-07-29T00:12:32;96408.69;;;18.20;67.28
64610;BME280;51019;46.090;6.350;2022-07-29T00:14:57;96327.31;;;17.50;68.11
64610;BME280;51019;46.090;6.350;2022-07-29T00:17:23;96395.94;;;17.81;68.39
64610;BME280;51019;46.090;6.350;2022-07-29T00:19:49;96395.00;;;17.95;68.29
64610;BME280;51019;46.090;6.350;2022-07-29T00:22:15;96404.50;;;18.04;67.91
64610;BME280;51019;46.090;6.350;2022-07-29T00:24:40;96391.06;;;17.85;67.14
64610;BME280;51019;46.090;6.350;2022-07-29T00:27:06;96409.00;;;17.83;67.71
64610;BME280;51019;46.090;6.350;2022-07-29T00:29:31;96390.41;;;18.04;67.67
64610;BME280;51019;46.090;6.350;2022-07-29T00:31:57;96399.25;;;17.90;68.45
64610;BME280;51019;46.090;6.350;2022-07-29T00:34:22;96381.66;;;17.82;68.45
64610;BME280;51019;46.090;6.350;2022-07-29T00:37:06;96401.97;;;17.75;68.02
64610;BME280;51019;46.090;6.350;2022-07-29T00:39:31;96408.25;;;17.31;68.41
64610;BME280;51019;46.090;6.350;2022-07-29T00:41:57;96417.06;;;17.38;69.63
64610;BME280;51019;46.090;6.350;2022-07-29T00:44:22;96397.03;;;17.51;69.74
64610;BME280;51019;46.090;6.350;2022-07-29T00:46:48;96410.31;;;17.72;68.98
64610;BME280;51019;46.090;6.350;2022-07-29T00:49:13;96408.75;;;17.77;69.15
64610;BME280;51019;46.090;6.350;2022-07-29T00:51:39;96413.34;;;17.69;70.17
64610;BME280;51019;46.090;6.350;2022-07-29T00:54:05;96404.06;;;17.58;70.60
64610;BME280;51019;46.090;6.350;2022-07-29T00:56:32;96414.88;;;17.78;70.31
64610;BME280;51019;46.090;6.350;2022-07-29T00:58:58;96425.66;;;17.76;71.23
64610;BME280;51019;46.090;6.350;2022-07-29T01:01:24;96411.66;;;17.83;71.01
64610;BME280;51019;46.090;6.350;2022-07-29T01:03:50;96402.03;;;17.60;69.72
64610;BME280;51019;46.090;6.350;2022-07-29T01:06:16;96409.53;;;17.57;70.29
64610;BME280;51019;46.090;6.350;2022-07-29T01:08:44;96402.72;;;17.48;70.99
64610;BME280;51019;46.090;6.350;2022-07-29T01:11:10;96421.00;;;17.42;71.83
64610;BME280;51019;46.090;6.350;2022-07-29T01:13:36;96353.28;;;16.83;72.89
64610;BME280;51019;46.090;6.350;2022-07-29T01:16:32;96396.72;;;17.03;72.89
64610;BME280;51019;46.090;6.350;2022-07-29T01:29:54;96413.25;;;17.62;69.88
64610;BME280;51019;46.090;6.350;2022-07-29T01:32:24;96350.38;;;16.92;70.13
64610;BME280;51019;46.090;6.350;2022-07-29T01:35:17;96380.16;;;16.80;71.48
64610;BME280;51019;46.090;6.350;2022-07-29T01:38:06;96412.03;;;17.22;71.12
64610;BME280;51019;46.090;6.350;2022-07-29T01:40:45;96398.00;;;17.28;69.35
64610;BME280;51019;46.090;6.350;2022-07-29T01:43:18;96372.78;;;17.11;69.38
64610;BME280;51019;46.090;6.350;2022-07-29T01:45:56;96411.75;;;17.17;70.70
64610;BME280;51019;46.090;6.350;2022-07-29T01:48:27;96364.44;;;16.93;70.66
64610;BME280;51019;46.090;6.350;2022-07-29T01:51:08;96419.91;;;17.01;72.12
64610;BME280;51019;46.090;6.350;2022-07-29T01:53:41;96413.09;;;16.92;71.22
64610;BME280;51019;46.090;6.350;2022-07-29T01:56:08;96407.69;;;16.85;71.02
64610;BME280;51019;46.090;6.350;2022-07-29T01:58:37;96407.97;;;16.90;69.84
64610;BME280;51019;46.090;6.350;2022-07-29T02:01:05;96430.97;;;16.90;70.44
64610;BME280;51019;46.090;6.350;2022-07-29T02:03:34;96430.50;;;16.86;70.83
64610;BME280;51019;46.090;6.350;2022-07-29T02:06:03;96421.56;;;17.02;70.33
64610;BME280;51019;46.090;6.350;2022-07-29T02:08:30;96399.94;;;16.84;70.88
64610;BME280;51019;46.090;6.350;2022-07-29T02:11:00;96435.53;;;16.96;72.26
64610;BME280;51019;46.090;6.350;2022-07-29T02:13:27;96390.75;;;16.80;72.07
64610;BME280;51019;46.090;6.350;2022-07-29T02:15:55;96433.44;;;17.27;71.35
64610;BME280;51019;46.090;6.350;2022-07-29T02:18:23;96418.78;;;17.25;70.49
64610;BME280;51019;46.090;6.350;2022-07-29T02:20:53;96431.88;;;16.97;72.78
64610;BME280;51019;46.090;6.350;2022-07-29T02:23:24;96414.84;;;16.70;73.34
64610;BME280;51019;46.090;6.350;2022-07-29T02:25:53;96404.78;;;16.65;73.25
64610;BME280;51019;46.090;6.350;2022-07-29T02:28:22;96390.63;;;16.58;72.11
64610;BME280;51019;46.090;6.350;2022-07-29T02:30:49;96418.91;;;16.87;72.52
64610;BME280;51019;46.090;6.350;2022-07-29T02:33:18;96416.25;;;17.02;70.61
64610;BME280;51019;46.090;6.350;2022-07-29T02:35:46;96432.09;;;16.81;71.42
64610;BME280;51019;46.090;6.350;2022-07-29T02:38:14;96425.16;;;16.27;73.33
64610;BME280;51019;46.090;6.350;2022-07-29T02:41:01;96398.56;;;16.73;70.85
64610;BME280;51019;46.090;6.350;2022-07-29T02:43:29;96413.81;;;17.00;70.42
64610;BME280;51019;46.090;6.350;2022-07-29T02:45:56;96408.41;;;16.94;70.21
64610;BME280;51019;46.090;6.350;2022-07-29T02:48:30;96415.81;;;16.98;69.88
64610;BME280;51019;46.090;6.350;2022-07-29T02:51:04;96405.03;;;16.85;69.34
64610;BME280;51019;46.090;6.350;2022-07-29T02:53:33;96400.78;;;16.69;70.15
64610;BME280;51019;46.090;6.350;2022-07-29T02:56:02;96421.56;;;16.73;70.81
64610;BME280;51019;46.090;6.350;2022-07-29T02:58:34;96413.56;;;16.81;70.35
64610;BME280;51019;46.090;6.350;2022-07-29T03:01:04;96419.03;;;16.64;71.76
64610;BME280;51019;46.090;6.350;2022-07-29T03:03:36;96423.09;;;16.52;72.98
64610;BME280;51019;46.090;6.350;2022-07-29T03:06:03;96409.47;;;16.26;73.36
64610;BME280;51019;46.090;6.350;2022-07-29T03:08:29;96427.25;;;16.69;71.68
64610;BME280;51019;46.090;6.350;2022-07-29T03:10:56;96418.66;;;16.67;72.02
64610;BME280;51019;46.090;6.350;2022-07-29T03:13:22;96419.84;;;16.80;71.67
64610;BME280;51019;46.090;6.350;2022-07-29T03:15:49;96408.38;;;16.20;73.75
64610;BME280;51019;46.090;6.350;2022-07-29T03:18:15;96399.75;;;16.56;72.64
64610;BME280;51019;46.090;6.350;2022-07-29T03:20:40;96305.50;;;15.81;73.51
64610;BME280;51019;46.090;6.350;2022-07-29T03:23:07;96417.44;;;16.55;73.90
64610;BME280;51019;46.090;6.350;2022-07-29T03:25:33;96372.06;;;16.14;73.97
64610;BME280;51019;46.090;6.350;2022-07-29T03:27:59;96409.50;;;16.41;73.70
64610;BME280;51019;46.090;6.350;2022-07-29T03:30:25;96395.81;;;16.22;73.87
64610;BME280;51019;46.090;6.350;2022-07-29T03:32:51;96422.25;;;16.22;74.18
64610;BME280;51019;46.090;6.350;2022-07-29T03:35:17;96409.28;;;16.13;74.72
64610;BME280;51019;46.090;6.350;2022-07-29T03:37:44;96426.72;;;16.37;73.64
64610;BME280;51019;46.090;6.350;2022-07-29T03:40:12;96416.94;;;16.08;73.74
64610;BME280;51019;46.090;6.350;2022-07-29T03:42:40;96441.44;;;16.02;74.70
64610;BME280;51019;46.090;6.350;2022-07-29T03:45:10;96439.06;;;16.07;74.50
64610;BME280;51019;46.090;6.350;2022-07-29T03:47:41;96440.69;;;15.93;75.58
64610;BME280;51019;46.090;6.350;2022-07-29T03:50:10;96424.31;;;15.75;75.80
64610;BME280;51019;46.090;6.350;2022-07-29T03:52:37;96439.81;;;16.01;75.20
64610;BME280;51019;46.090;6.350;2022-07-29T03:55:03;96433.78;;;16.07;75.26
64610;BME280;51019;46.090;6.350;2022-07-29T03:57:30;96429.81;;;16.11;75.00
64610;BME280;51019;46.090;6.350;2022-07-29T03:59:57;96428.69;;;16.05;75.37
64610;BME280;51019;46.090;6.350;2022-07-29T04:02:23;96433.91;;;16.28;74.75
64610;BME280;51019;46.090;6.350;2022-07-29T04:04:50;96394.88;;;16.01;74.41
64610;BME280;51019;46.090;6.350;2022-07-29T04:07:16;96429.50;;;16.06;75.56
64610;BME280;51019;46.090;6.350;2022-07-29T04:09:41;96413.50;;;15.84;75.37
64610;BME280;51019;46.090;6.350;2022-07-29T04:12:07;96431.22;;;15.98;74.64
64610;BME280;51019;46.090;6.350;2022-07-29T04:14:33;96442.22;;;15.87;75.36
64610;BME280;51019;46.090;6.350;2022-07-29T04:17:03;96444.97;;;15.94;75.44
64610;BME280;51019;46.090;6.350;2022-07-29T04:19:29;96446.69;;;15.64;76.49
64610;BME280;51019;46.090;6.350;2022-07-29T04:21:55;96434.84;;;15.52;75.90
64610;BME280;51019;46.090;6.350;2022-07-29T04:24:21;96447.22;;;15.29;77.65
64610;BME280;51019;46.090;6.350;2022-07-29T04:26:46;96448.31;;;15.11;78.14
64610;BME280;51019;46.090;6.350;2022-07-29T04:29:12;96409.78;;;14.94;77.89
64610;BME280;51019;46.090;6.350;2022-07-29T04:31:42;96457.84;;;15.43;77.11
64610;BME280;51019;46.090;6.350;2022-07-29T04:34:08;96467.44;;;15.36;77.41
64610;BME280;51019;46.090;6.350;2022-07-29T04:36:34;96463.38;;;15.34;76.96
64610;BME280;51019;46.090;6.350;2022-07-29T04:38:59;96474.94;;;15.64;76.00
64610;BME280;51019;46.090;6.350;2022-07-29T04:41:27;96392.00;;;15.19;76.14
64610;BME280;51019;46.090;6.350;2022-07-29T04:43:52;96461.53;;;15.65;76.09
64610;BME280;51019;46.090;6.350;2022-07-29T04:46:18;96413.00;;;15.35;76.01
64610;BME280;51019;46.090;6.350;2022-07-29T04:48:45;96481.38;;;16.07;74.84
64610;BME280;51019;46.090;6.350;2022-07-29T04:51:11;96489.25;;;15.69;75.86
64610;BME280;51019;46.090;6.350;2022-07-29T04:53:36;96502.31;;;15.32;78.13
64610;BME280;51019;46.090;6.350;2022-07-29T04:56:02;96428.44;;;15.23;76.64
64610;BME280;51019;46.090;6.350;2022-07-29T04:58:28;96503.25;;;15.78;76.33
64610;BME280;51019;46.090;6.350;2022-07-29T05:00:53;96499.66;;;15.93;75.84
64610;BME280;51019;46.090;6.350;2022-07-29T05:03:19;96493.81;;;16.21;74.51
64610;BME280;51019;46.090;6.350;2022-07-29T05:05:44;96496.88;;;16.32;74.63
64610;BME280;51019;46.090;6.350;2022-07-29T05:08:10;96468.88;;;16.38;73.73
64610;BME280;51019;46.090;6.350;2022-07-29T05:10:35;96432.56;;;15.94;74.14
64610;BME280;51019;46.090;6.350;2022-07-29T05:13:05;96482.50;;;16.27;74.31
64610;BME280;51019;46.090;6.350;2022-07-29T05:15:32;96501.06;;;16.94;71.67
64610;BME280;51019;46.090;6.350;2022-07-29T05:17:57;96498.53;;;17.15;71.36
64610;BME280;51019;46.090;6.350;2022-07-29T05:20:23;96476.88;;;17.12;71.30
64610;BME280;51019;46.090;6.350;2022-07-29T05:22:54;96499.31;;;17.81;69.35
64610;BME280;51019;46.090;6.350;2022-07-29T05:25:19;96490.47;;;17.95;70.04
64610;BME280;51019;46.090;6.350;2022-07-29T05:27:45;96508.66;;;18.20;68.12
64610;BME280;51019;46.090;6.350;2022-07-29T05:30:10;96501.47;;;18.41;67.17
64610;BME280;51019;46.090;6.350;2022-07-29T05:32:36;96495.00;;;18.23;66.94
64610;BME280;51019;46.090;6.350;2022-07-29T05:35:01;96503.28;;;18.34;66.13
64610;BME280;51019;46.090;6.350;2022-07-29T05:37:26;96511.88;;;18.15;67.96
64610;BME280;51019;46.090;6.350;2022-07-29T05:39:52;96491.59;;;18.07;68.12
64610;BME280;51019;46.090;6.350;2022-07-29T05:42:17;96464.78;;;17.96;69.17
64610;BME280;51019;46.090;6.350;2022-07-29T05:44:43;96500.56;;;18.06;68.72
64610;BME280;51019;46.090;6.350;2022-07-29T05:47:08;96434.03;;;17.59;69.09
64610;BME280;51019;46.090;6.350;2022-07-29T05:49:34;96498.94;;;18.05;68.97
64610;BME280;51019;46.090;6.350;2022-07-29T05:51:59;96469.31;;;18.23;66.52
64610;BME280;51019;46.090;6.350;2022-07-29T05:54:24;96456.75;;;18.60;64.92
64610;BME280;51019;46.090;6.350;2022-07-29T05:56:50;96531.16;;;19.42;63.29
64610;BME280;51019;46.090;6.350;2022-07-29T05:59:16;96516.31;;;19.54;63.88
64610;BME280;51019;46.090;6.350;2022-07-29T06:01:41;96510.88;;;19.75;63.39
64610;BME280;51019;46.090;6.350;2022-07-29T06:04:07;96528.44;;;19.70;65.05
64610;BME280;51019;46.090;6.350;2022-07-29T06:06:33;96498.16;;;19.57;63.74
64610;BME280;51019;46.090;6.350;2022-07-29T06:08:59;96526.47;;;19.98;62.04
64610;BME280;51019;46.090;6.350;2022-07-29T06:11:24;96515.41;;;19.88;61.27
64610;BME280;51019;46.090;6.350;2022-07-29T06:13:49;96501.81;;;19.50;62.30
64610;BME280;51019;46.090;6.350;2022-07-29T06:16:15;96492.19;;;19.55;63.47
64610;BME280;51019;46.090;6.350;2022-07-29T06:18:40;96518.00;;;19.62;63.74
64610;BME280;51019;46.090;6.350;2022-07-29T06:21:09;96513.91;;;19.66;63.63
64610;BME280;51019;46.090;6.350;2022-07-29T06:23:38;96521.88;;;19.59;63.39
64610;BME280;51019;46.090;6.350;2022-07-29T06:26:04;96524.09;;;19.55;64.29
64610;BME280;51019;46.090;6.350;2022-07-29T06:28:31;96513.97;;;19.79;61.73
64610;BME280;51019;46.090;6.350;2022-07-29T06:30:57;96518.50;;;19.98;59.52
64610;BME280;51019;46.090;6.350;2022-07-29T06:33:22;96514.81;;;19.92;59.98
64610;BME280;51019;46.090;6.350;2022-07-29T06:35:48;96515.44;;;20.01;58.71
64610;BME280;51019;46.090;6.350;2022-07-29T06:38:15;96513.84;;;20.33;58.27
64610;BME280;51019;46.090;6.350;2022-07-29T06:40:44;96513.44;;;20.29;57.74
64610;BME280;51019;46.090;6.350;2022-07-29T06:43:34;96505.03;;;20.06;62.88
64610;BME280;51019;46.090;6.350;2022-07-29T06:46:05;96512.19;;;20.12;64.32
64610;BME280;51019;46.090;6.350;2022-07-29T06:48:32;96490.59;;;19.68;64.05
64610;BME280;51019;46.090;6.350;2022-07-29T06:50:58;96462.22;;;19.27;65.69
64610;BME280;51019;46.090;6.350;2022-07-29T06:53:24;96512.06;;;19.66;65.89
64610;BME280;51019;46.090;6.350;2022-07-29T06:55:50;96502.69;;;19.64;64.37
64610;BME280;51019;46.090;6.350;2022-07-29T06:58:16;96502.53;;;19.98;63.66
64610;BME280;51019;46.090;6.350;2022-07-29T07:00:44;96505.41;;;19.90;61.90
64610;BME280;51019;46.090;6.350;2022-07-29T07:03:10;96525.47;;;19.99;62.55
64610;BME280;51019;46.090;6.350;2022-07-29T07:05:36;96524.50;;;20.20;62.45
64610;BME280;51019;46.090;6.350;2022-07-29T07:08:01;96492.94;;;20.04;60.47
64610;BME280;51019;46.090;6.350;2022-07-29T07:10:27;96522.47;;;20.68;56.77
64610;BME280;51019;46.090;6.350;2022-07-29T07:12:52;96514.97;;;21.49;54.74
64610;BME280;51019;46.090;6.350;2022-07-29T07:15:18;96543.28;;;21.95;53.12
64610;BME280;51019;46.090;6.350;2022-07-29T07:17:50;96546.91;;;21.56;53.87
64610;BME280;51019;46.090;6.350;2022-07-29T07:20:16;96512.13;;;21.44;51.34
64610;BME280;51019;46.090;6.350;2022-07-29T07:22:42;96491.81;;;21.43;51.87
64610;BME280;51019;46.090;6.350;2022-07-29T07:25:08;96556.66;;;21.82;51.69
64610;BME280;51019;46.090;6.350;2022-07-29T07:27:34;96548.41;;;21.96;51.16
64610;BME280;51019;46.090;6.350;2022-07-29T07:30:00;96558.22;;;22.09;51.57
64610;BME280;51019;46.090;6.350;2022-07-29T07:32:26;96509.16;;;21.65;50.77
64610;BME280;51019;46.090;6.350;2022-07-29T07:34:51;96520.88;;;22.02;51.50
64610;BME280;51019;46.090;6.350;2022-07-29T07:37:17;96496.13;;;21.89;52.15
64610;BME280;51019;46.090;6.350;2022-07-29T07:39:45;96547.75;;;22.39;50.30
64610;BME280;51019;46.090;6.350;2022-07-29T07:42:11;96560.97;;;22.27;51.66
64610;BME280;51019;46.090;6.350;2022-07-29T07:44:39;96560.13;;;22.33;53.63
64610;BME280;51019;46.090;6.350;2022-07-29T07:47:05;96572.22;;;22.36;55.34
64610;BME280;51019;46.090;6.350;2022-07-29T07:49:30;96561.78;;;22.34;55.40
64610;BME280;51019;46.090;6.350;2022-07-29T07:51:56;96581.28;;;22.60;54.77
64610;BME280;51019;46.090;6.350;2022-07-29T07:54:21;96547.72;;;22.70;54.89
64610;BME280;51019;46.090;6.350;2022-07-29T07:56:47;96545.88;;;22.71;54.00
64610;BME280;51019;46.090;6.350;2022-07-29T07:59:16;96570.31;;;22.74;54.20
64610;BME280;51019;46.090;6.350;2022-07-29T08:01:41;96539.97;;;22.37;54.30
64610;BME280;51019;46.090;6.350;2022-07-29T08:04:07;96582.59;;;22.51;53.77
64610;BME280;51019;46.090;6.350;2022-07-29T08:06:33;96558.94;;;22.86;53.02
64610;BME280;51019;46.090;6.350;2022-07-29T08:09:01;96552.31;;;23.13;51.73
64610;BME280;51019;46.090;6.350;2022-07-29T08:11:27;96555.34;;;23.16;51.43
64610;BME280;51019;46.090;6.350;2022-07-29T08:13:52;96575.41;;;23.26;52.23
64610;BME280;51019;46.090;6.350;2022-07-29T08:16:20;96580.09;;;23.12;53.14
64610;BME280;51019;46.090;6.350;2022-07-29T08:18:46;96574.66;;;23.00;52.98
64610;BME280;51019;46.090;6.350;2022-07-29T08:21:13;96583.59;;;23.12;52.22
64610;BME280;51019;46.090;6.350;2022-07-29T08:23:39;96537.84;;;22.71;52.35
64610;BME280;51019;46.090;6.350;2022-07-29T08:26:10;96572.56;;;23.02;52.63
64610;BME280;51019;46.090;6.350;2022-07-29T08:28:40;96571.88;;;22.57;53.58
64610;BME280;51019;46.090;6.350;2022-07-29T08:31:06;96583.41;;;23.07;51.59
64610;BME280;51019;46.090;6.350;2022-07-29T08:33:33;96581.06;;;23.17;51.41
64610;BME280;51019;46.090;6.350;2022-07-29T08:35:58;96584.31;;;23.01;52.01
64610;BME280;51019;46.090;6.350;2022-07-29T08:38:24;96576.38;;;23.13;52.21
64610;BME280;51019;46.090;6.350;2022-07-29T08:40:51;96579.88;;;23.13;52.67
64610;BME280;51019;46.090;6.350;2022-07-29T08:43:18;96578.28;;;22.81;54.48
64610;BME280;51019;46.090;6.350;2022-07-29T08:45:49;96561.44;;;22.80;53.23
64610;BME280;51019;46.090;6.350;2022-07-29T08:48:20;96578.19;;;22.63;52.97
64610;BME280;51019;46.090;6.350;2022-07-29T08:50:48;96526.94;;;22.72;52.70
64610;BME280;51019;46.090;6.350;2022-07-29T08:53:16;96576.00;;;22.85;54.16
64610;BME280;51019;46.090;6.350;2022-07-29T08:55:43;96525.63;;;22.32;57.93
64610;BME280;51019;46.090;6.350;2022-07-29T08:58:11;96517.03;;;22.30;57.65
64610;BME280;51019;46.090;6.350;2022-07-29T09:00:42;96485.75;;;22.05;57.84
64610;BME280;51019;46.090;6.350;2022-07-29T09:03:09;96446.13;;;21.71;57.81
64610;BME280;51019;46.090;6.350;2022-07-29T09:05:37;96487.84;;;21.97;56.97
64610;BME280;51019;46.090;6.350;2022-07-29T09:08:04;96497.91;;;22.01;58.84
64610;BME280;51019;46.090;6.350;2022-07-29T09:10:29;96488.94;;;21.83;59.25
64610;BME280;51019;46.090;6.350;2022-07-29T09:13:01;96516.44;;;21.83;59.51
64610;BME280;51019;46.090;6.350;2022-07-29T09:15:27;96508.97;;;21.60;59.41
64610;BME280;51019;46.090;6.350;2022-07-29T09:17:53;96491.66;;;21.76;57.37
64610;BME280;51019;46.090;6.350;2022-07-29T09:20:28;96568.00;;;22.53;56.34
64610;BME280;51019;46.090;6.350;2022-07-29T09:23:12;96524.88;;;22.50;56.46
64610;BME280;51019;46.090;6.350;2022-07-29T09:26:04;96448.53;;;22.17;53.55
64610;BME280;51019;46.090;6.350;2022-07-29T09:28:30;96581.44;;;23.21;53.08
64610;BME280;51019;46.090;6.350;2022-07-29T09:31:05;96465.06;;;22.32;53.12
64610;BME280;51019;46.090;6.350;2022-07-29T09:33:33;96517.50;;;22.76;52.83
64610;BME280;51019;46.090;6.350;2022-07-29T09:36:06;96474.56;;;22.46;53.34
64610;BME280;51019;46.090;6.350;2022-07-29T09:38:33;96478.41;;;22.57;53.16
64610;BME280;51019;46.090;6.350;2022-07-29T09:41:00;96501.50;;;22.45;54.13
64610;BME280;51019;46.090;6.350;2022-07-29T09:43:32;96504.53;;;22.49;54.69
64610;BME280;51019;46.090;6.350;2022-07-29T09:46:12;96572.16;;;22.74;55.06
64610;BME280;51019;46.090;6.350;2022-07-29T09:48:38;96565.00;;;22.99;55.16
64610;BME280;51019;46.090;6.350;2022-07-29T09:51:03;96532.53;;;22.96;55.06
64610;BME280;51019;46.090;6.350;2022-07-29T09:53:57;96592.28;;;23.69;53.61
64610;BME280;51019;46.090;6.350;2022-07-29T09:56:46;96479.66;;;22.30;54.68
64610;BME280;51019;46.090;6.350;2022-07-29T09:59:13;96566.41;;;23.02;54.71
64610;BME280;51019;46.090;6.350;2022-07-29T10:01:39;96622.41;;;23.15;55.41
64610;BME280;51019;46.090;6.350;2022-07-29T10:04:05;96619.97;;;23.13;55.52
64610;BME280;51019;46.090;6.350;2022-07-29T10:06:30;96589.16;;;22.55;56.70
64610;BME280;51019;46.090;6.350;2022-07-29T10:09:11;96579.97;;;22.44;56.67
64610;BME280;51019;46.090;6.350;2022-07-29T10:11:37;96594.72;;;22.15;57.77
64610;BME280;51019;46.090;6.350;2022-07-29T10:14:03;96576.44;;;22.19;56.94
64610;BME280;51019;46.090;6.350;2022-07-29T10:16:30;96597.50;;;22.33;56.92
64610;BME280;51019;46.090;6.350;2022-07-29T10:19:01;96545.53;;;21.98;57.42
64610;BME280;51019;46.090;6.350;2022-07-29T10:21:27;96632.28;;;22.90;56.28
64610;BME280;51019;46.090;6.350;2022-07-29T10:23:53;96650.66;;;23.04;55.24
64610;BME280;51019;46.090;6.350;2022-07-29T10:26:21;96569.66;;;22.23;56.79
64610;BME280;51019;46.090;6.350;2022-07-29T10:28:47;96663.69;;;22.94;57.56
64610;BME280;51019;46.090;6.350;2022-07-29T10:31:25;96682.50;;;22.81;58.12
64610;BME280;51019;46.090;6.350;2022-07-29T10:34:10;96706.72;;;22.41;58.54
64610;BME280;51019;46.090;6.350;2022-07-29T10:37:00;96702.00;;;21.59;63.40
64610;BME280;51019;46.090;6.350;2022-07-29T10:39:54;96704.66;;;21.72;65.24
64610;BME280;51019;46.090;6.350;2022-07-29T10:42:27;96713.03;;;21.89;65.29
64610;BME280;51019;46.090;6.350;2022-07-29T10:44:54;96719.25;;;21.44;66.06
64610;BME280;51019;46.090;6.350;2022-07-29T10:50:03;96693.38;;;20.98;65.72
64610;BME280;51019;46.090;6.350;2022-07-29T10:52:52;96728.34;;;20.69;67.67
64610;BME280;51019;46.090;6.350;2022-07-29T10:55:44;96731.81;;;20.62;69.53
64610;BME280;51019;46.090;6.350;2022-07-29T10:58:20;96716.25;;;20.66;70.25
64610;BME280;51019;46.090;6.350;2022-07-29T11:00:49;96728.88;;;20.38;72.04
64610;BME280;51019;46.090;6.350;2022-07-29T11:03:43;96736.13;;;20.22;74.52
64610;BME280;51019;46.090;6.350;2022-07-29T11:06:10;96746.69;;;20.03;76.00
64610;BME280;51019;46.090;6.350;2022-07-29T11:08:36;96736.31;;;19.31;78.54
64610;BME280;51019;46.090;6.350;2022-07-29T11:13:49;96751.91;;;19.12;80.99
64610;BME280;51019;46.090;6.350;2022-07-29T11:16:17;96757.72;;;19.22;82.60
64610;BME280;51019;46.090;6.350;2022-07-29T11:21:35;96759.59;;;18.86;85.11
64610;BME280;51019;46.090;6.350;2022-07-29T11:24:14;96755.06;;;18.80;86.14
64610;BME280;51019;46.090;6.350;2022-07-29T11:26:41;96749.31;;;18.76;86.24
64610;BME280;51019;46.090;6.350;2022-07-29T11:29:20;96761.31;;;18.72;85.69
64610;BME280;51019;46.090;6.350;2022-07-29T11:31:50;96770.47;;;19.06;86.35
64610;BME280;51019;46.090;6.350;2022-07-29T11:34:27;96781.13;;;19.12;86.08
64610;BME280;51019;46.090;6.350;2022-07-29T11:39:35;96788.22;;;19.27;85.68
64610;BME280;51019;46.090;6.350;2022-07-29T11:47:38;96793.06;;;19.66;85.21
64610;BME280;51019;46.090;6.350;2022-07-29T11:50:08;96793.06;;;19.66;83.06
64610;BME280;51019;46.090;6.350;2022-07-29T11:52:39;96762.03;;;19.23;83.29
64610;BME280;51019;46.090;6.350;2022-07-29T11:55:12;96774.75;;;19.28;83.92
64610;BME280;51019;46.090;6.350;2022-07-29T11:57:49;96796.25;;;19.54;84.75
64610;BME280;51019;46.090;6.350;2022-07-29T12:00:41;96774.41;;;19.38;84.39
64610;BME280;51019;46.090;6.350;2022-07-29T12:03:09;96794.59;;;19.53;86.64
64610;BME280;51019;46.090;6.350;2022-07-29T12:05:36;96791.38;;;19.58;86.76
64610;BME280;51019;46.090;6.350;2022-07-29T12:08:24;96790.03;;;19.69;85.66
64610;BME280;51019;46.090;6.350;2022-07-29T12:10:51;96793.72;;;19.46;86.62
64610;BME280;51019;46.090;6.350;2022-07-29T12:13:19;96800.75;;;19.54;87.59
64610;BME280;51019;46.090;6.350;2022-07-29T12:15:53;96782.84;;;19.63;88.43
64610;BME280;51019;46.090;6.350;2022-07-29T12:18:20;96786.22;;;19.78;86.87
64610;BME280;51019;46.090;6.350;2022-07-29T12:20:47;96791.75;;;19.55;89.93
64610;BME280;51019;46.090;6.350;2022-07-29T12:23:13;96796.88;;;19.56;91.05
64610;BME280;51019;46.090;6.350;2022-07-29T12:25:42;96743.50;;;19.09;92.33
64610;BME280;51019;46.090;6.350;2022-07-29T12:28:14;96762.34;;;19.14;93.80
64610;BME280;51019;46.090;6.350;2022-07-29T12:30:47;96730.44;;;19.07;92.70
64610;BME280;51019;46.090;6.350;2022-07-29T12:33:27;96791.19;;;19.38;90.52
64610;BME280;51019;46.090;6.350;2022-07-29T12:36:13;96791.41;;;19.65;90.70
64610;BME280;51019;46.090;6.350;2022-07-29T12:38:40;96783.06;;;19.68;92.32
64610;BME280;51019;46.090;6.350;2022-07-29T12:41:06;96655.88;;;18.88;91.37
64610;BME280;51019;46.090;6.350;2022-07-29T12:43:32;96700.25;;;18.94;91.77
64610;BME280;51019;46.090;6.350;2022-07-29T12:46:00;96711.09;;;19.20;91.79
64610;BME280;51019;46.090;6.350;2022-07-29T12:48:38;96721.84;;;19.33;92.74
64610;BME280;51019;46.090;6.350;2022-07-29T12:51:05;96772.06;;;19.71;89.79
64610;BME280;51019;46.090;6.350;2022-07-29T12:53:34;96718.13;;;19.28;90.80
64610;BME280;51019;46.090;6.350;2022-07-29T12:56:00;96720.22;;;19.11;90.65
64610;BME280;51019;46.090;6.350;2022-07-29T12:58:33;96788.41;;;19.25;90.09
64610;BME280;51019;46.090;6.350;2022-07-29T13:01:13;96783.06;;;19.46;89.25
64610;BME280;51019;46.090;6.350;2022-07-29T13:03:58;96791.72;;;19.48;90.53
64610;BME280;51019;46.090;6.350;2022-07-29T13:06:41;96793.50;;;19.69;88.14
64610;BME280;51019;46.090;6.350;2022-07-29T13:09:15;96777.22;;;19.51;87.46
64610;BME280;51019;46.090;6.350;2022-07-29T13:11:43;96789.66;;;19.72;86.57
64610;BME280;51019;46.090;6.350;2022-07-29T13:14:11;96781.84;;;19.98;85.67
64610;BME280;51019;46.090;6.350;2022-07-29T13:17:04;96791.59;;;20.53;84.15
64610;BME280;51019;46.090;6.350;2022-07-29T13:20:05;96790.13;;;20.98;85.04
64610;BME280;51019;46.090;6.350;2022-07-29T13:22:31;96795.75;;;21.30;82.25
64610;BME280;51019;46.090;6.350;2022-07-29T13:24:58;96792.75;;;20.92;77.92
64610;BME280;51019;46.090;6.350;2022-07-29T13:27:28;96775.44;;;21.29;79.38
64610;BME280;51019;46.090;6.350;2022-07-29T13:29:55;96802.72;;;21.44;79.10
64610;BME280;51019;46.090;6.350;2022-07-29T13:32:25;96780.34;;;21.85;74.79
64610;BME280;51019;46.090;6.350;2022-07-29T13:34:52;96796.31;;;22.31;75.22
64610;BME280;51019;46.090;6.350;2022-07-29T13:37:18;96777.75;;;23.63;70.16